Time;durP1;ratioP1;P1;durP2;ratioP2;P2;SDS_P1;SDS_P2;PMS_P1;PMS_P2;Temp;Humidity;BMP_temperature;BMP_pressure;BME280_temperature;BME280_humidity;BME280_pressure;Samples;Min_cycle;Max_cycle;Signal;HPM_P1;HPM_P2
2022/10/20 00:02:09;;;;;;;7.60;5.15;;;11.70;99.90;;;;;;5032778;28;20033;-84
2022/10/20 00:04:35;;;;;;;8.38;4.25;;;11.70;99.90;;;;;;5019459;28;20029;-84
2022/10/20 00:07:00;;;;;;;7.63;4.78;;;11.70;99.90;;;;;;4995856;28;20497;-84
2022/10/20 00:09:26;;;;;;;7.22;4.38;;;11.70;99.90;;;;;;4985471;28;20042;-84
2022/10/20 00:11:55;;;;;;;7.97;4.50;;;11.70;99.90;;;;;;4986916;28;20104;-84
2022/10/20 00:14:20;;;;;;;7.90;4.78;;;11.60;99.90;;;;;;4995247;28;20029;-84
2022/10/20 00:16:46;;;;;;;7.78;4.53;;;11.60;99.90;;;;;;4999289;28;20467;-84
2022/10/20 00:19:12;;;;;;;7.85;4.70;;;11.60;99.90;;;;;;4984172;28;20026;-84
2022/10/20 00:21:37;;;;;;;7.47;4.38;;;11.50;99.90;;;;;;5017690;28;20041;-84
2022/10/20 00:24:03;;;;;;;8.40;4.72;;;11.50;99.90;;;;;;5023242;28;20505;-84
2022/10/20 00:26:30;;;;;;;10.18;5.03;;;11.50;99.90;;;;;;5003124;28;20040;-84
2022/10/20 00:28:56;;;;;;;9.20;4.97;;;11.50;99.90;;;;;;5025095;28;20020;-84
2022/10/20 00:31:23;;;;;;;8.52;4.57;;;11.50;99.90;;;;;;5011790;28;20501;-84
2022/10/20 00:33:49;;;;;;;8.63;5.00;;;11.40;99.90;;;;;;5023038;28;20021;-85
2022/10/20 00:36:17;;;;;;;7.38;4.72;;;11.40;99.90;;;;;;5013253;28;20391;-85
2022/10/20 00:38:44;;;;;;;9.27;5.07;;;11.40;99.90;;;;;;5035307;28;20033;-84
2022/10/20 00:41:15;;;;;;;10.43;5.00;;;11.40;99.90;;;;;;5039748;28;20052;-84
2022/10/20 00:43:57;;;;;;;;;;;11.40;99.90;;;;;;5039288;28;20485;-84
2022/10/20 00:46:24;;;;;;;10.32;5.25;;;11.30;99.90;;;;;;5039400;28;19911;-84
2022/10/20 00:48:57;;;;;;;8.65;4.72;;;11.30;99.90;;;;;;5039249;28;20025;-84
2022/10/20 00:51:27;;;;;;;10.55;4.78;;;11.30;99.90;;;;;;5039593;28;20025;-85
2022/10/20 00:54:07;;;;;;;11.35;5.00;;;11.30;99.90;;;;;;5038613;28;20091;-85
2022/10/20 00:56:35;;;;;;;7.00;4.88;;;11.30;99.90;;;;;;5019422;28;20087;-85
2022/10/20 00:59:03;;;;;;;9.35;4.80;;;11.30;99.90;;;;;;5020217;28;20040;-85
2022/10/20 01:01:31;;;;;;;8.43;5.05;;;11.20;99.90;;;;;;4999517;28;20112;-84
2022/10/20 01:03:58;;;;;;;7.78;5.07;;;11.20;99.90;;;;;;5031255;28;20052;-85
2022/10/20 01:06:27;;;;;;;11.57;5.30;;;11.20;99.90;;;;;;5006212;28;20029;-84
2022/10/20 01:08:54;;;;;;;8.80;4.93;;;11.20;99.90;;;;;;5027527;28;20068;-85
2022/10/20 01:11:44;;;;;;;9.43;5.32;;;11.20;99.90;;;;;;5052428;28;20032;-84
2022/10/20 01:14:40;;;;;;;7.80;4.78;;;11.20;99.90;;;;;;5038926;28;20017;-84
2022/10/20 01:17:27;;;;;;;10.95;5.57;;;11.20;99.90;;;;;;5019141;28;20072;-84
2022/10/20 01:20:33;;;;;;;10.43;5.50;;;11.20;99.90;;;;;;5036425;28;20029;-84
2022/10/20 01:23:07;;;;;;;7.20;5.13;;;11.10;99.90;;;;;;5000542;28;20064;-84
2022/10/20 01:26:04;;;;;;;9.02;5.43;;;11.10;99.90;;;;;;5018982;28;20036;-84
2022/10/20 01:28:59;;;;;;;8.20;4.93;;;11.10;99.90;;;;;;5036947;28;20036;-84
2022/10/20 01:31:30;;;;;;;7.65;5.05;;;11.00;99.90;;;;;;5037855;28;20479;-85
2022/10/20 01:34:34;;;;;;;8.30;5.20;;;11.10;99.90;;;;;;5038166;28;20024;-85
2022/10/20 01:37:14;;;;;;;7.43;4.45;;;11.00;99.90;;;;;;5033299;28;20167;-85
2022/10/20 01:39:48;;;;;;;12.07;5.23;;;11.00;99.90;;;;;;5038489;28;20550;-85
2022/10/20 01:42:19;;;;;;;10.75;5.20;;;11.00;99.90;;;;;;5037990;28;20278;-84
2022/10/20 01:44:47;;;;;;;9.40;5.15;;;11.00;99.90;;;;;;5038299;28;20022;-84
2022/10/20 01:47:14;;;;;;;8.30;5.43;;;11.00;99.90;;;;;;5005429;28;20033;-85
2022/10/20 01:53:03;;;;;;;9.25;5.70;;;11.00;99.90;;;;;;5044046;28;20020;-84
2022/10/20 01:55:29;;;;;;;8.02;5.53;;;10.90;99.90;;;;;;5035601;28;20048;-85
2022/10/20 01:58:24;;;;;;;8.52;5.57;;;10.90;99.90;;;;;;5018879;23;20093;-84
2022/10/20 02:00:53;;;;;;;10.93;5.72;;;10.90;99.90;;;;;;5016642;28;20025;-84
2022/10/20 02:03:41;;;;;;;9.10;5.70;;;10.90;99.90;;;;;;5017947;28;20032;-84
2022/10/20 02:06:21;;;;;;;11.85;5.40;;;10.90;99.90;;;;;;5017760;28;20447;-84
2022/10/20 02:09:00;;;;;;;8.20;5.50;;;10.90;99.90;;;;;;5033795;28;20045;-84
2022/10/20 02:11:26;;;;;;;8.82;5.07;;;10.90;99.90;;;;;;5017469;28;20029;-84
2022/10/20 02:13:55;;;;;;;7.43;5.22;;;10.80;99.90;;;;;;5017640;28;20025;-84
2022/10/20 02:16:32;;;;;;;8.57;5.40;;;10.80;99.90;;;;;;5017538;28;20084;-84
2022/10/20 02:18:59;;;;;;;10.77;5.63;;;10.80;99.90;;;;;;5024395;28;20021;-89
2022/10/20 02:21:25;;;;;;;10.85;6.03;;;10.80;99.90;;;;;;5019383;28;20022;-89
2022/10/20 02:23:53;;;;;;;8.73;5.43;;;10.80;99.90;;;;;;5003167;28;20394;-90
2022/10/20 02:26:22;;;;;;;10.00;5.38;;;10.80;99.90;;;;;;4995944;28;20022;-89
2022/10/20 02:28:52;;;;;;;14.68;6.65;;;10.80;99.90;;;;;;4999614;28;20029;-90
2022/10/20 02:31:19;;;;;;;9.25;5.60;;;10.80;99.90;;;;;;5000208;28;20061;-89
2022/10/20 02:33:46;;;;;;;8.82;4.93;;;10.80;99.90;;;;;;5011576;28;20026;-89
2022/10/20 02:36:17;;;;;;;12.98;5.90;;;10.70;99.90;;;;;;5003293;28;20030;-89
2022/10/20 02:38:43;;;;;;;8.27;5.70;;;10.70;99.90;;;;;;4988042;28;20063;-89
2022/10/20 02:41:09;;;;;;;9.38;6.00;;;10.70;99.90;;;;;;5019224;28;20553;-88
2022/10/20 02:43:35;;;;;;;9.55;5.30;;;10.70;99.90;;;;;;5001983;28;20041;-89
2022/10/20 02:46:01;;;;;;;11.77;5.32;;;10.70;99.90;;;;;;4986254;28;20057;-89
2022/10/20 02:48:28;;;;;;;11.48;5.95;;;10.70;99.90;;;;;;5002793;28;20030;-88
2022/10/20 02:50:54;;;;;;;8.63;5.43;;;10.70;99.90;;;;;;5019298;28;20029;-89
2022/10/20 02:53:20;;;;;;;10.38;5.45;;;10.70;99.90;;;;;;4982329;28;20045;-89
2022/10/20 02:55:46;;;;;;;11.05;5.32;;;10.70;99.90;;;;;;4983182;28;20033;-89
2022/10/20 02:58:12;;;;;;;8.68;5.47;;;10.60;99.90;;;;;;5015513;28;20072;-89
2022/10/20 03:00:39;;;;;;;8.63;5.10;;;10.60;99.90;;;;;;4982529;28;20588;-90
2022/10/20 03:03:05;;;;;;;10.38;5.30;;;10.60;99.90;;;;;;4999094;28;20387;-89
2022/10/20 03:05:30;;;;;;;7.70;5.53;;;10.60;99.90;;;;;;4999130;28;20357;-89
2022/10/20 03:07:56;;;;;;;10.13;5.70;;;10.60;99.90;;;;;;4993095;28;20026;-88
2022/10/20 03:10:22;;;;;;;8.13;5.55;;;10.60;99.90;;;;;;4999089;28;20026;-89
2022/10/20 03:12:48;;;;;;;9.02;5.35;;;10.60;99.90;;;;;;4982482;28;20026;-89
2022/10/20 03:15:15;;;;;;;10.77;5.70;;;10.60;99.90;;;;;;4982062;28;20109;-90
2022/10/20 03:17:41;;;;;;;7.60;5.32;;;10.50;99.90;;;;;;4986818;28;20442;-89
2022/10/20 03:20:08;;;;;;;10.50;6.35;;;10.50;99.90;;;;;;4988074;28;20029;-89
2022/10/20 03:22:34;;;;;;;9.30;6.15;;;10.50;99.90;;;;;;5017185;28;20032;-88
2022/10/20 03:25:00;;;;;;;10.70;5.60;;;10.50;99.90;;;;;;4972173;28;20037;-89
2022/10/20 03:30:49;;;;;;;9.15;5.95;;;10.50;99.90;;;;;;5033956;28;20111;-89
2022/10/20 03:33:15;;;;;;;9.93;5.68;;;10.50;99.90;;;;;;4982258;28;20038;-89
2022/10/20 03:35:41;;;;;;;13.98;5.75;;;10.50;99.90;;;;;;4973837;28;20108;-89
2022/10/20 03:38:07;;;;;;;7.95;5.47;;;10.40;99.90;;;;;;4999707;28;20060;-89
2022/10/20 03:40:33;;;;;;;10.00;5.85;;;10.40;99.90;;;;;;5020833;28;20025;-89
2022/10/20 03:43:00;;;;;;;7.78;5.40;;;10.40;99.90;;;;;;5002999;28;20056;-90
2022/10/20 03:45:26;;;;;;;8.95;5.53;;;10.40;99.90;;;;;;5004612;28;20034;-90
2022/10/20 03:47:54;;;;;;;9.02;5.63;;;10.40;99.90;;;;;;4980152;28;20034;-89
2022/10/20 03:50:23;;;;;;;8.50;5.15;;;10.40;99.90;;;;;;4998967;28;20038;-90
2022/10/20 03:52:50;;;;;;;10.23;5.72;;;10.40;99.90;;;;;;4984676;28;20093;-90
2022/10/20 03:55:17;;;;;;;9.02;6.03;;;10.40;99.90;;;;;;5016154;28;20030;-90
2022/10/20 03:57:45;;;;;;;9.98;5.88;;;10.40;99.90;;;;;;5013540;28;20379;-90
2022/10/20 04:00:12;;;;;;;9.65;5.57;;;10.40;99.90;;;;;;4983279;28;20046;-90
2022/10/20 04:02:43;;;;;;;9.27;5.57;;;10.30;99.90;;;;;;4990121;28;20040;-90
2022/10/20 04:05:28;;;;;;;10.27;5.60;;;10.30;99.90;;;;;;5025277;28;20479;-90
2022/10/20 04:07:54;;;;;;;10.55;6.00;;;10.30;99.90;;;;;;5004863;28;20046;-90
2022/10/20 04:10:20;;;;;;;11.82;5.70;;;10.30;99.90;;;;;;4991318;28;20038;-90
2022/10/20 04:12:47;;;;;;;10.25;6.60;;;10.30;99.90;;;;;;4997042;28;20033;-89
2022/10/20 04:15:13;;;;;;;10.30;5.82;;;10.30;99.90;;;;;;4974683;28;20030;-90
2022/10/20 04:17:41;;;;;;;9.45;5.65;;;10.30;99.90;;;;;;4980568;28;20034;-87
2022/10/20 04:20:08;;;;;;;9.02;6.05;;;10.30;99.90;;;;;;4990759;28;20046;-86
2022/10/20 04:22:34;;;;;;;9.50;5.22;;;10.30;99.90;;;;;;4984442;28;20022;-86
2022/10/20 04:25:00;;;;;;;9.65;5.95;;;10.30;99.90;;;;;;4975532;28;20030;-87
2022/10/20 04:27:27;;;;;;;9.07;5.72;;;10.30;99.90;;;;;;4984416;28;20029;-87
2022/10/20 04:29:54;;;;;;;7.93;5.80;;;10.30;99.90;;;;;;4991579;28;20184;-86
2022/10/20 04:32:20;;;;;;;8.65;5.97;;;10.30;99.90;;;;;;4968019;28;20030;-87
2022/10/20 04:34:49;;;;;;;10.70;6.05;;;10.30;99.90;;;;;;4968511;28;20031;-87
2022/10/20 04:37:18;;;;;;;10.43;5.88;;;10.20;99.90;;;;;;4964108;28;20511;-86
2022/10/20 04:39:44;;;;;;;9.40;6.03;;;10.20;99.90;;;;;;4979667;28;20456;-87
2022/10/20 04:42:11;;;;;;;9.45;6.00;;;10.20;99.90;;;;;;4983825;28;20538;-87
2022/10/20 04:44:37;;;;;;;11.18;6.40;;;10.20;99.90;;;;;;4982118;28;20476;-87
2022/10/20 04:47:03;;;;;;;8.63;5.93;;;10.20;99.90;;;;;;4984920;28;20076;-86
2022/10/20 04:49:29;;;;;;;14.38;6.80;;;10.20;99.90;;;;;;4965753;28;20038;-86
2022/10/20 04:51:55;;;;;;;12.30;6.47;;;10.20;99.90;;;;;;5002523;28;20029;-86
2022/10/20 04:54:21;;;;;;;11.13;5.90;;;10.20;99.90;;;;;;4982977;28;20026;-86
2022/10/20 04:56:49;;;;;;;10.43;5.90;;;10.20;99.90;;;;;;4968351;28;20118;-86
2022/10/20 04:59:16;;;;;;;8.55;5.53;;;10.20;99.90;;;;;;4968650;28;20050;-86
2022/10/20 05:01:42;;;;;;;8.60;6.28;;;10.20;99.90;;;;;;4983944;28;20037;-87
2022/10/20 05:04:10;;;;;;;11.57;6.32;;;10.20;99.90;;;;;;5017518;28;20022;-87
2022/10/20 05:06:36;;;;;;;10.40;5.90;;;10.20;99.90;;;;;;4982804;28;20120;-87
2022/10/20 05:09:09;;;;;;;14.88;6.75;;;10.20;99.90;;;;;;4982093;28;20464;-86
2022/10/20 05:11:41;;;;;;;13.73;6.72;;;10.20;99.90;;;;;;4998999;28;20430;-87
2022/10/20 05:14:07;;;;;;;11.40;7.35;;;10.20;99.90;;;;;;4987970;28;20026;-86
2022/10/20 05:16:37;;;;;;;11.38;6.70;;;10.20;99.90;;;;;;4985268;28;20479;-87
2022/10/20 05:19:03;;;;;;;12.13;7.53;;;10.20;99.90;;;;;;4986436;28;20506;-86
2022/10/20 05:21:51;;;;;;;8.90;6.57;;;10.20;99.90;;;;;;4982831;28;20030;-86
2022/10/20 05:28:33;;;;;;;10.43;6.63;;;10.20;99.90;;;;;;5012816;28;20037;-86
2022/10/20 05:31:07;;;;;;;11.85;6.70;;;10.20;99.90;;;;;;5012732;28;20037;-86
2022/10/20 05:34:12;;;;;;;12.80;7.35;;;10.20;99.90;;;;;;4980305;28;20380;-86
2022/10/20 05:36:38;;;;;;;10.40;6.80;;;10.20;99.90;;;;;;4997993;28;20034;-86
2022/10/20 05:42:20;;;;;;;10.10;6.43;;;10.20;99.90;;;;;;4999837;28;20061;-87
2022/10/20 05:44:55;;;;;;;11.18;7.13;;;10.20;99.90;;;;;;4962149;28;20039;-86
2022/10/20 05:48:04;;;;;;;9.85;7.00;;;10.20;99.90;;;;;;4954631;28;20035;-86
2022/10/20 05:50:30;;;;;;;14.52;7.15;;;10.20;99.90;;;;;;4904699;29;20097;-86
2022/10/20 05:53:38;;;;;;;;;;;;;;;;;;;;;
2022/10/20 05:57:20;;;;;;;12.63;7.18;;;10.20;99.90;;;;;;4945698;28;20122;-86
2022/10/20 06:03:54;;;;;;;11.35;7.63;;;10.20;99.90;;;;;;4811314;29;20162;-87
2022/10/20 06:07:02;;;;;;;13.70;7.30;;;10.20;99.90;;;;;;4847746;29;20049;-86
2022/10/20 06:13:04;;;;;;;;;;;;;;;;;;;;;
2022/10/20 06:15:39;;;;;;;12.90;7.63;;;10.20;99.90;;;;;;4970831;28;20118;-86
2022/10/20 06:18:10;;;;;;;11.05;7.72;;;10.20;99.90;;;;;;4949082;28;20059;-86
2022/10/20 06:23:58;;;;;;;15.63;7.87;;;10.20;99.90;;;;;;5017521;28;20033;-86
2022/10/20 06:26:40;;;;;;;12.85;8.70;;;10.20;99.90;;;;;;4984882;28;20041;-86
2022/10/20 06:29:49;;;;;;;;;;;;;;;;;;;;;
2022/10/20 06:32:59;;;;;;;13.32;8.20;;;10.20;99.90;;;;;;5011768;28;20105;-87
2022/10/20 06:35:38;;;;;;;15.05;8.05;;;10.20;99.90;;;;;;4999932;28;20471;-86
2022/10/20 06:38:35;;;;;;;13.13;7.82;;;10.20;99.90;;;;;;4982835;28;20464;-86
2022/10/20 06:41:49;;;;;;;11.90;7.82;;;10.20;99.90;;;;;;5000125;28;20034;-88
2022/10/20 06:44:35;;;;;;;12.32;8.13;;;10.20;99.90;;;;;;4999899;28;20402;-85
2022/10/20 06:47:01;;;;;;;13.45;8.65;;;10.20;99.90;;;;;;4995463;28;20029;-85
2022/10/20 06:50:03;;;;;;;12.18;8.50;;;10.20;99.90;;;;;;5003450;28;20471;-85
2022/10/20 06:52:47;;;;;;;13.38;8.10;;;10.20;99.90;;;;;;5001280;28;20045;-84
2022/10/20 06:55:48;;;;;;;14.35;8.20;;;10.20;99.90;;;;;;4997413;28;20418;-84
2022/10/20 06:58:16;;;;;;;10.88;8.15;;;10.20;99.90;;;;;;4982590;28;20388;-84
2022/10/20 07:03:54;;;;;;;13.00;8.63;;;10.30;99.90;;;;;;5016200;28;20033;-85
2022/10/20 07:06:23;;;;;;;12.65;8.75;;;10.30;99.90;;;;;;5016439;28;20033;-85
2022/10/20 07:09:02;;;;;;;14.52;8.73;;;10.30;99.90;;;;;;5013512;28;20031;-85
2022/10/20 07:11:39;;;;;;;12.60;8.15;;;10.30;99.90;;;;;;5009452;28;20084;-85
2022/10/20 07:14:05;;;;;;;12.48;8.27;;;10.30;99.90;;;;;;4998998;28;20091;-85
2022/10/20 07:16:40;;;;;;;10.65;7.82;;;10.30;99.90;;;;;;5014154;28;20084;-85
2022/10/20 07:19:17;;;;;;;11.82;7.85;;;10.30;99.90;;;;;;5014767;28;20103;-84
2022/10/20 07:21:59;;;;;;;15.43;8.68;;;10.30;99.90;;;;;;5014339;28;20022;-85
2022/10/20 07:24:25;;;;;;;15.98;8.88;;;10.30;99.90;;;;;;5000429;28;20060;-84
2022/10/20 07:26:51;;;;;;;13.75;8.73;;;10.40;99.90;;;;;;4994098;28;20143;-85
2022/10/20 07:29:17;;;;;;;14.73;8.60;;;10.40;99.90;;;;;;5009752;28;20034;-85
2022/10/20 07:31:44;;;;;;;12.10;8.65;;;10.40;99.90;;;;;;4976634;28;20034;-85
2022/10/20 07:34:12;;;;;;;13.68;8.73;;;10.40;99.90;;;;;;5015342;28;20169;-85
2022/10/20 07:36:42;;;;;;;15.70;9.38;;;10.40;99.90;;;;;;4994804;28;20025;-85
2022/10/20 07:39:11;;;;;;;14.32;9.00;;;10.40;99.90;;;;;;4993241;28;20117;-85
2022/10/20 07:41:38;;;;;;;11.80;9.45;;;10.50;99.90;;;;;;4995158;28;20052;-85
2022/10/20 07:44:04;;;;;;;17.98;8.88;;;10.40;99.90;;;;;;5007210;28;20022;-85
2022/10/20 07:46:30;;;;;;;15.00;9.23;;;10.40;99.90;;;;;;5029286;28;20080;-85
2022/10/20 07:48:56;;;;;;;14.93;8.80;;;10.50;99.90;;;;;;5012214;28;20029;-85
2022/10/20 07:51:24;;;;;;;13.48;9.43;;;10.50;99.90;;;;;;5009788;28;20056;-85
2022/10/20 07:53:58;;;;;;;12.82;9.52;;;10.50;99.90;;;;;;5009475;28;20487;-85
2022/10/20 07:56:26;;;;;;;15.00;9.00;;;10.50;99.90;;;;;;5004270;28;20045;-86
2022/10/20 07:58:53;;;;;;;15.43;8.93;;;10.50;99.90;;;;;;4994729;28;20029;-86
2022/10/20 08:01:19;;;;;;;13.95;9.27;;;10.60;99.90;;;;;;4996012;28;20080;-86
2022/10/20 08:03:44;;;;;;;17.30;9.57;;;10.60;99.90;;;;;;5016745;28;20064;-85
2022/10/20 08:06:10;;;;;;;14.18;9.55;;;10.60;99.90;;;;;;4982393;28;20030;-86
2022/10/20 08:08:36;;;;;;;13.68;9.52;;;10.60;99.90;;;;;;4998125;28;20034;-87
2022/10/20 08:11:02;;;;;;;16.00;10.13;;;10.60;99.90;;;;;;4982730;28;20037;-86
2022/10/20 08:13:28;;;;;;;20.70;11.82;;;10.70;99.90;;;;;;5009701;28;20021;-86
2022/10/20 08:15:54;;;;;;;14.85;9.02;;;10.70;99.90;;;;;;4996047;28;20493;-86
2022/10/20 08:18:20;;;;;;;18.63;10.10;;;10.70;99.90;;;;;;5031407;28;20018;-87
2022/10/20 08:20:46;;;;;;;15.18;10.18;;;10.80;99.90;;;;;;4994327;28;20042;-85
2022/10/20 08:23:13;;;;;;;16.30;10.02;;;10.80;99.90;;;;;;4997935;28;20414;-86
2022/10/20 08:25:39;;;;;;;14.43;9.50;;;10.80;99.90;;;;;;5005576;28;20578;-86
2022/10/20 08:28:05;;;;;;;13.30;9.10;;;10.80;99.90;;;;;;5030186;28;20032;-86
2022/10/20 08:30:31;;;;;;;13.75;9.30;;;10.90;99.90;;;;;;5013222;28;20029;-87
2022/10/20 08:32:57;;;;;;;15.45;10.98;;;10.90;99.90;;;;;;4998311;28;20025;-87
2022/10/20 08:35:23;;;;;;;16.95;10.65;;;10.90;99.90;;;;;;4999829;28;20065;-87
2022/10/20 08:37:49;;;;;;;15.48;9.88;;;10.90;99.90;;;;;;4994246;28;20541;-87
2022/10/20 08:40:23;;;;;;;17.70;10.00;;;11.00;99.90;;;;;;5001132;28;20026;-86
2022/10/20 08:42:51;;;;;;;14.25;9.40;;;11.00;99.90;;;;;;5040168;28;20033;-86
2022/10/20 08:45:21;;;;;;;14.35;10.02;;;11.10;99.90;;;;;;4997823;28;20025;-85
2022/10/20 08:47:49;;;;;;;19.08;11.48;;;11.10;99.90;;;;;;5024223;28;20029;-85
2022/10/20 08:50:17;;;;;;;15.48;10.73;;;11.10;99.90;;;;;;5020556;28;20474;-86
2022/10/20 08:52:45;;;;;;;15.35;10.40;;;11.10;99.90;;;;;;4998983;28;20116;-86
2022/10/20 08:55:30;;;;;;;15.40;10.07;;;11.20;99.90;;;;;;5011163;28;20356;-86
2022/10/20 08:58:18;;;;;;;14.32;10.43;;;11.20;99.90;;;;;;5032680;28;20020;-86
2022/10/20 09:00:45;;;;;;;14.23;10.90;;;11.30;99.90;;;;;;5017336;28;20037;-86
2022/10/20 09:03:13;;;;;;;18.50;11.15;;;11.30;99.90;;;;;;5007037;28;20021;-86
2022/10/20 09:05:41;;;;;;;14.63;10.82;;;11.40;99.90;;;;;;5018241;28;20033;-86
2022/10/20 09:08:07;;;;;;;13.90;10.23;;;11.40;99.90;;;;;;5020956;28;20018;-87
2022/10/20 09:10:37;;;;;;;16.92;11.05;;;11.50;99.90;;;;;;5019520;28;20060;-86
2022/10/20 09:13:16;;;;;;;14.10;10.85;;;11.50;99.90;;;;;;5021709;28;20059;-86
2022/10/20 09:15:42;;;;;;;16.38;11.68;;;11.60;99.90;;;;;;5033910;28;20021;-87
2022/10/20 09:18:13;;;;;;;14.95;11.00;;;11.60;99.90;;;;;;4985305;28;21134;-87
2022/10/20 09:20:57;;;;;;;17.42;11.60;;;11.70;99.90;;;;;;5012733;28;20032;-86
2022/10/20 09:23:30;;;;;;;16.80;11.43;;;11.70;99.90;;;;;;5014110;28;20033;-86
2022/10/20 09:25:55;;;;;;;15.85;11.30;;;11.70;99.90;;;;;;5033673;28;20139;-86
2022/10/20 09:28:28;;;;;;;26.10;10.90;;;11.80;99.90;;;;;;5012462;28;20108;-85
2022/10/20 09:30:55;;;;;;;14.68;10.70;;;11.90;99.90;;;;;;5011436;28;20409;-87
2022/10/20 09:33:33;;;;;;;15.20;11.57;;;11.90;99.90;;;;;;5007958;28;20018;-85
2022/10/20 09:36:13;;;;;;;16.65;11.18;;;11.90;99.90;;;;;;5018674;28;20466;-86
2022/10/20 09:38:45;;;;;;;12.68;10.15;;;12.00;99.90;;;;;;5018528;28;20014;-87
2022/10/20 09:41:20;;;;;;;15.30;10.75;;;12.00;99.90;;;;;;5017765;28;20026;-85
2022/10/20 09:43:56;;;;;;;15.10;11.20;;;12.10;99.90;;;;;;5013817;28;20464;-85
2022/10/20 09:46:33;;;;;;;14.85;10.73;;;12.10;99.90;;;;;;5016018;28;20030;-86
2022/10/20 09:48:59;;;;;;;19.00;11.30;;;12.20;99.90;;;;;;5024270;28;20022;-86
2022/10/20 09:51:27;;;;;;;20.30;11.65;;;12.20;99.90;;;;;;5001799;28;20036;-86
2022/10/20 09:54:03;;;;;;;13.52;11.20;;;12.30;99.90;;;;;;5001540;28;20029;-86
2022/10/20 09:56:41;;;;;;;14.65;10.60;;;12.30;99.90;;;;;;5019157;28;20018;-86
2022/10/20 09:59:18;;;;;;;19.00;11.55;;;12.40;99.90;;;;;;5001088;28;20109;-86
2022/10/20 10:02:08;;;;;;;15.70;11.07;;;12.40;99.90;;;;;;5011657;28;20049;-87
2022/10/20 10:04:36;;;;;;;16.50;10.68;;;12.40;99.90;;;;;;5017028;28;20028;-87
2022/10/20 10:07:04;;;;;;;12.75;10.20;;;12.50;99.90;;;;;;5014683;28;20133;-87
2022/10/20 10:09:36;;;;;;;14.05;10.55;;;12.50;99.90;;;;;;5001341;28;20112;-87
2022/10/20 10:12:24;;;;;;;16.17;10.48;;;12.60;99.90;;;;;;5015085;28;20026;-86
2022/10/20 10:14:55;;;;;;;15.88;10.38;;;12.60;99.90;;;;;;5011612;28;20033;-87
2022/10/20 10:17:48;;;;;;;14.70;10.55;;;12.60;99.90;;;;;;5024230;28;20027;-86
2022/10/20 10:20:15;;;;;;;15.98;10.75;;;12.70;99.90;;;;;;5002147;28;20041;-86
2022/10/20 10:22:44;;;;;;;16.95;11.25;;;12.70;99.90;;;;;;5016672;28;20056;-87
2022/10/20 10:25:26;;;;;;;16.38;10.68;;;12.80;99.90;;;;;;4992366;28;20437;-86
2022/10/20 10:28:17;;;;;;;19.10;10.82;;;12.80;99.90;;;;;;5016006;28;20044;-86
2022/10/20 10:30:43;;;;;;;21.88;12.32;;;12.80;99.90;;;;;;5014140;28;20521;-86
2022/10/20 10:33:25;;;;;;;20.35;11.30;;;12.90;99.90;;;;;;5001324;28;20049;-86
2022/10/20 10:35:51;;;;;;;16.23;10.57;;;12.90;99.90;;;;;;5015978;28;20025;-86
2022/10/20 10:38:18;;;;;;;14.55;10.50;;;13.00;99.90;;;;;;4998363;28;20045;-86
2022/10/20 10:41:11;;;;;;;15.77;10.00;;;13.00;99.90;;;;;;5016668;28;20029;-86
2022/10/20 10:44:03;;;;;;;17.02;10.43;;;13.10;99.90;;;;;;5027991;28;20021;-86
2022/10/20 10:46:41;;;;;;;15.35;10.52;;;13.10;99.90;;;;;;5004806;28;20041;-85
2022/10/20 10:49:19;;;;;;;18.73;11.48;;;13.10;99.90;;;;;;5016161;28;20025;-87
2022/10/20 10:52:02;;;;;;;18.58;11.00;;;13.20;99.90;;;;;;5016442;28;20033;-87
2022/10/20 10:54:56;;;;;;;19.60;10.40;;;13.30;99.90;;;;;;5025865;28;20028;-87
2022/10/20 10:57:36;;;;;;;15.02;10.85;;;13.30;99.90;;;;;;4998317;28;20030;-86
2022/10/20 11:00:36;;;;;;;20.23;12.30;;;13.40;99.90;;;;;;5002174;28;20037;-86
2022/10/20 11:03:31;;;;;;;16.00;11.65;;;13.40;99.90;;;;;;5021429;28;20040;-86
2022/10/20 11:06:32;;;;;;;20.67;13.05;;;13.50;99.90;;;;;;5004475;28;20034;-87
2022/10/20 11:09:21;;;;;;;23.25;12.05;;;13.50;99.90;;;;;;5000391;28;20053;-86
2022/10/20 11:15:43;;;;;;;17.70;11.63;;;13.60;99.90;;;;;;5021446;28;20068;-85
2022/10/20 11:18:59;;;;;;;13.43;10.38;;;13.70;99.90;;;;;;4997984;28;20030;-86
2022/10/20 11:21:33;;;;;;;29.15;12.57;;;13.70;99.90;;;;;;4926203;29;20028;-86
2022/10/20 11:24:26;;;;;;;22.50;12.32;;;13.70;99.90;;;;;;4916128;29;20032;-87
2022/10/20 11:27:14;;;;;;;21.88;11.68;;;13.70;99.90;;;;;;4994042;28;20052;-87
2022/10/20 11:29:50;;;;;;;16.45;10.93;;;13.80;99.90;;;;;;5009393;28;20419;-86
2022/10/20 11:32:48;;;;;;;17.85;12.07;;;13.80;99.90;;;;;;5005486;28;20072;-87
2022/10/20 11:35:23;;;;;;;17.00;11.00;;;13.80;99.90;;;;;;4969922;28;20506;-86
2022/10/20 11:38:13;;;;;;;16.23;11.13;;;13.80;99.90;;;;;;5011336;28;20072;-86
2022/10/20 11:40:43;;;;;;;18.38;12.50;;;13.80;99.90;;;;;;5003006;28;20025;-86
2022/10/20 11:43:31;;;;;;;17.90;12.57;;;13.80;99.90;;;;;;5016369;28;20099;-86
2022/10/20 11:46:05;;;;;;;15.93;11.45;;;13.90;99.90;;;;;;5033983;28;20030;-85
2022/10/20 11:48:41;;;;;;;16.00;12.02;;;13.90;99.90;;;;;;5002502;28;20482;-87
2022/10/20 11:51:32;;;;;;;22.33;13.88;;;13.90;99.90;;;;;;5033978;28;20091;-87
2022/10/20 11:54:16;;;;;;;18.70;12.65;;;13.90;99.90;;;;;;5016815;28;20068;-87
2022/10/20 11:56:48;;;;;;;18.15;12.82;;;13.90;99.90;;;;;;5017945;28;20354;-87
2022/10/20 11:59:20;;;;;;;23.65;12.45;;;13.90;99.90;;;;;;5011213;28;20018;-87
2022/10/20 12:02:13;;;;;;;18.30;13.25;;;13.90;99.90;;;;;;5015944;28;20060;-87
2022/10/20 12:05:04;;;;;;;21.08;13.48;;;14.00;99.90;;;;;;5016472;28;20057;-87
2022/10/20 12:07:54;;;;;;;20.27;13.25;;;13.90;99.90;;;;;;5003290;28;20021;-87
2022/10/20 12:10:42;;;;;;;21.25;13.77;;;13.90;99.90;;;;;;5017657;28;20033;-87
2022/10/20 12:13:17;;;;;;;21.17;14.80;;;14.00;99.90;;;;;;5018596;28;20104;-87
2022/10/20 12:15:48;;;;;;;21.38;14.90;;;14.00;99.90;;;;;;5015879;28;20025;-87
2022/10/20 12:18:30;;;;;;;22.80;15.10;;;14.00;99.90;;;;;;5022001;28;20029;-87
2022/10/20 12:21:01;;;;;;;22.33;14.38;;;14.00;99.90;;;;;;5008953;28;20029;-87
2022/10/20 12:23:45;;;;;;;21.65;14.70;;;14.00;99.90;;;;;;5022525;28;20521;-87
2022/10/20 12:26:31;;;;;;;20.25;15.40;;;14.00;99.90;;;;;;5036314;28;20052;-86
2022/10/20 12:32:53;;;;;;;27.23;15.73;;;14.00;99.90;;;;;;5029971;28;20445;-86
2022/10/20 12:35:19;;;;;;;19.45;14.60;;;14.00;99.90;;;;;;5018056;28;20025;-86
2022/10/20 12:37:55;;;;;;;28.65;16.75;;;14.00;99.90;;;;;;5019446;28;20013;-86
2022/10/20 12:40:33;;;;;;;26.38;16.40;;;14.00;99.90;;;;;;5029936;28;20025;-86
2022/10/20 12:42:59;;;;;;;25.00;16.38;;;14.00;99.90;;;;;;5025256;28;20033;-86
2022/10/20 12:45:36;;;;;;;21.88;14.85;;;14.00;99.90;;;;;;4999821;28;20029;-86
2022/10/20 12:48:05;;;;;;;25.25;15.77;;;14.00;99.90;;;;;;5019467;28;20083;-87
2022/10/20 12:50:37;;;;;;;24.23;15.27;;;14.00;99.90;;;;;;5019216;28;20091;-86
2022/10/20 12:53:16;;;;;;;20.75;15.82;;;14.00;99.90;;;;;;5006804;28;20030;-87
2022/10/20 12:55:55;;;;;;;21.30;15.60;;;14.00;99.90;;;;;;5000036;28;20049;-87
2022/10/20 12:58:21;;;;;;;28.58;18.77;;;14.10;99.90;;;;;;5013750;28;20021;-87
2022/10/20 13:00:46;;;;;;;23.73;16.02;;;14.00;99.90;;;;;;5017652;28;20034;-87
2022/10/20 13:03:30;;;;;;;23.73;16.17;;;14.10;99.90;;;;;;5019185;28;20551;-87
2022/10/20 13:05:57;;;;;;;22.92;16.30;;;14.10;99.90;;;;;;5005800;28;20021;-87
2022/10/20 13:08:25;;;;;;;24.30;16.20;;;14.10;99.90;;;;;;5002604;28;20029;-87
2022/10/20 13:10:54;;;;;;;21.83;15.25;;;14.10;99.90;;;;;;5014884;28;20050;-88
2022/10/20 13:13:20;;;;;;;21.55;15.82;;;14.20;99.90;;;;;;4992112;28;20030;-88
2022/10/20 13:15:52;;;;;;;28.55;18.02;;;14.20;99.90;;;;;;5017030;28;20044;-88
2022/10/20 13:18:31;;;;;;;23.38;16.90;;;14.20;99.90;;;;;;5019679;28;20105;-88
2022/10/20 13:21:18;;;;;;;22.40;16.17;;;14.20;99.90;;;;;;5019532;28;20383;-88
2022/10/20 13:24:11;;;;;;;24.60;16.40;;;14.20;99.90;;;;;;5018728;28;20044;-87
2022/10/20 13:26:42;;;;;;;28.75;18.05;;;14.20;99.90;;;;;;5007317;28;20026;-87
2022/10/20 13:29:36;;;;;;;25.77;17.70;;;14.20;99.90;;;;;;5018539;28;20546;-87
2022/10/20 13:32:12;;;;;;;25.17;15.93;;;14.20;99.90;;;;;;5019068;28;20478;-87
2022/10/20 13:35:07;;;;;;;26.15;16.58;;;14.20;99.90;;;;;;5019224;28;20542;-87
2022/10/20 13:37:50;;;;;;;23.15;17.20;;;14.30;99.90;;;;;;5019646;28;20018;-88
2022/10/20 13:40:58;;;;;;;25.60;18.15;;;14.30;99.90;;;;;;5007756;28;20032;-88
2022/10/20 13:43:57;;;;;;;25.17;16.88;;;14.30;99.90;;;;;;5009629;28;20110;-88
2022/10/20 13:47:06;;;;;;;26.65;17.60;;;14.30;99.90;;;;;;5019684;28;20021;-89
2022/10/20 13:49:43;;;;;;;24.25;17.05;;;14.30;99.90;;;;;;5020632;28;20064;-89
2022/10/20 13:52:15;;;;;;;29.00;18.50;;;14.30;99.90;;;;;;5021796;28;20028;-88